createdAt,value
2023-04-26T00:02:18.318Z,5.17
2023-04-26T00:04:47.302Z,4.83
2023-04-26T00:07:16.561Z,4.63
2023-04-26T00:09:44.824Z,4.37
2023-04-26T00:12:12.863Z,4.53
2023-04-26T00:14:40.673Z,6.83
2023-04-26T00:17:08.412Z,7.23
2023-04-26T00:19:38.565Z,9.03
2023-04-26T00:22:06.616Z,7.87
2023-04-26T00:24:34.535Z,9.53
2023-04-26T00:27:05.307Z,9.10
2023-04-26T00:29:33.024Z,5.80
2023-04-26T00:32:00.954Z,4.63
2023-04-26T00:34:33.526Z,5.57
2023-04-26T00:37:03.397Z,5.60
2023-04-26T00:39:31.443Z,5.90
2023-04-26T00:41:59.319Z,4.70
2023-04-26T00:44:27.055Z,4.13
2023-04-26T00:46:55.821Z,3.53
2023-04-26T00:49:25.930Z,2.33
2023-04-26T00:51:54.072Z,2.40
2023-04-26T00:54:23.469Z,1.90
2023-04-26T00:56:53.220Z,2.70
2023-04-26T00:59:21.572Z,2.07
2023-04-26T01:01:49.564Z,2.53
2023-04-26T01:04:18.236Z,1.90
2023-04-26T01:06:46.959Z,2.13
2023-04-26T01:09:15.526Z,1.97
2023-04-26T01:11:45.636Z,1.80
2023-04-26T01:14:14.106Z,1.80
2023-04-26T01:16:41.937Z,2.00
2023-04-26T01:19:12.547Z,2.30
2023-04-26T01:21:41.075Z,2.10
2023-04-26T01:24:10.665Z,2.30
2023-04-26T01:26:43.972Z,2.63
2023-04-26T01:29:16.189Z,2.20
2023-04-26T01:31:44.138Z,2.47
2023-04-26T01:34:11.929Z,2.00
2023-04-26T01:36:39.791Z,2.40
2023-04-26T01:39:09.209Z,2.67
2023-04-26T01:41:38.611Z,1.80
2023-04-26T01:44:06.618Z,2.07
2023-04-26T01:46:34.522Z,2.30
2023-04-26T01:49:02.304Z,2.00
2023-04-26T01:51:29.973Z,2.40
2023-04-26T01:53:57.662Z,3.33
2023-04-26T01:56:25.662Z,2.40
2023-04-26T01:58:56.265Z,2.30
2023-04-26T02:01:24.262Z,2.17
2023-04-26T02:03:52.150Z,2.30
2023-04-26T02:06:19.856Z,2.80
2023-04-26T02:08:47.661Z,3.47
2023-04-26T02:11:15.338Z,3.70
2023-04-26T02:13:43.272Z,3.07
2023-04-26T02:16:12.416Z,4.83
2023-04-26T02:18:41.675Z,2.90
2023-04-26T02:21:10.095Z,3.47
2023-04-26T02:23:37.805Z,3.57
2023-04-26T02:26:05.985Z,2.47
2023-04-26T02:28:33.689Z,3.03
2023-04-26T02:31:03.155Z,2.80
2023-04-26T02:33:32.306Z,3.20
2023-04-26T02:36:00.126Z,4.27
2023-04-26T02:38:28.012Z,4.37
2023-04-26T02:40:59.771Z,4.57
2023-04-26T02:43:27.718Z,4.10
2023-04-26T02:45:55.577Z,3.50
2023-04-26T02:48:23.296Z,3.10
2023-04-26T02:50:52.567Z,3.70
2023-04-26T02:53:20.836Z,4.03
2023-04-26T02:55:48.599Z,3.47
2023-04-26T02:58:17.394Z,2.93
2023-04-26T03:00:48.316Z,2.40
2023-04-26T03:03:16.765Z,2.80
2023-04-26T03:05:44.732Z,2.30
2023-04-26T03:08:13.732Z,2.40
2023-04-26T03:10:41.429Z,3.00
2023-04-26T03:13:09.280Z,2.23
2023-04-26T03:15:36.999Z,2.43
2023-04-26T03:18:04.917Z,2.53
2023-04-26T03:20:32.738Z,2.30
2023-04-26T03:23:00.437Z,2.87
2023-04-26T03:25:29.589Z,2.63
2023-04-26T03:27:57.395Z,2.47
2023-04-26T03:30:25.078Z,2.50
2023-04-26T03:32:53.808Z,2.20
2023-04-26T03:35:21.822Z,2.20
2023-04-26T03:37:51.166Z,2.27
2023-04-26T03:40:20.385Z,2.87
2023-04-26T03:42:49.478Z,2.40
2023-04-26T03:45:17.246Z,3.07
2023-04-26T03:47:44.974Z,2.97
2023-04-26T03:50:13.118Z,2.30
2023-04-26T03:52:40.926Z,2.87
2023-04-26T03:55:11.820Z,2.63
2023-04-26T03:57:39.622Z,2.70
2023-04-26T04:00:12.497Z,3.20
2023-04-26T04:02:40.498Z,2.50
2023-04-26T04:05:09.239Z,2.90
2023-04-26T04:07:37.449Z,3.33
2023-04-26T04:10:05.638Z,3.03
2023-04-26T04:12:33.329Z,2.80
2023-04-26T04:15:01.321Z,3.10
2023-04-26T04:17:30.475Z,3.20
2023-04-26T04:19:58.297Z,3.40
2023-04-26T04:22:26.138Z,3.40
2023-04-26T04:24:54.380Z,3.23
2023-04-26T04:27:22.735Z,2.73
2023-04-26T04:29:50.430Z,2.50
2023-04-26T04:32:18.713Z,2.60
2023-04-26T04:34:49.484Z,2.83
2023-04-26T04:37:18.164Z,2.43
2023-04-26T04:39:46.195Z,2.70
2023-04-26T04:42:14.041Z,3.13
2023-04-26T04:44:43.051Z,2.57
2023-04-26T04:47:10.840Z,2.73
2023-04-26T04:49:38.707Z,3.23
2023-04-26T04:52:07.978Z,2.57
2023-04-26T04:54:35.789Z,2.70
2023-04-26T04:57:04.040Z,2.53
2023-04-26T04:59:33.254Z,3.30
2023-04-26T05:02:01.637Z,2.63
2023-04-26T05:04:29.560Z,3.07
2023-04-26T05:06:57.586Z,3.93
2023-04-26T05:09:27.585Z,3.10
2023-04-26T05:11:55.305Z,3.20
2023-04-26T05:14:23.108Z,2.83
2023-04-26T05:16:51.051Z,3.33
2023-04-26T05:19:18.841Z,4.70
2023-04-26T05:21:46.650Z,5.07
2023-04-26T05:24:14.349Z,3.77
2023-04-26T05:26:43.593Z,4.20
2023-04-26T05:29:11.408Z,5.73
2023-04-26T05:31:39.267Z,5.67
2023-04-26T05:34:07.145Z,5.60
2023-04-26T05:36:35.568Z,5.67
2023-04-26T05:39:05.690Z,8.43
2023-04-26T05:41:33.489Z,7.50
2023-04-26T05:44:02.578Z,7.87
2023-04-26T05:46:30.556Z,7.23
2023-04-26T05:48:58.274Z,5.23
2023-04-26T05:51:26.290Z,5.00
2023-04-26T05:53:54.886Z,5.33
2023-04-26T05:56:24.059Z,4.53
2023-04-26T05:58:51.838Z,8.10
2023-04-26T06:01:21.131Z,6.23
2023-04-26T06:03:49.413Z,6.70
2023-04-26T06:06:18.492Z,6.03
2023-04-26T06:08:46.555Z,6.77
2023-04-26T06:11:14.386Z,5.10
2023-04-26T06:13:42.594Z,3.93
2023-04-26T06:16:10.452Z,3.07
2023-04-26T06:18:39.587Z,3.13
2023-04-26T06:21:08.010Z,3.33
2023-04-26T06:23:35.743Z,3.27
2023-04-26T06:26:03.466Z,3.27
2023-04-26T06:28:31.555Z,2.77
2023-04-26T06:30:59.572Z,2.90
2023-04-26T06:33:27.579Z,3.07
2023-04-26T06:35:56.642Z,2.60
2023-04-26T06:38:24.441Z,2.43
2023-04-26T06:40:52.225Z,3.47
2023-04-26T06:43:19.926Z,2.80
2023-04-26T06:45:48.635Z,3.10
2023-04-26T06:48:16.379Z,3.10
2023-04-26T06:50:44.176Z,2.60
2023-04-26T06:53:13.266Z,2.63
2023-04-26T06:55:40.969Z,3.40
2023-04-26T06:58:08.865Z,3.80
2023-04-26T07:00:36.725Z,3.47
2023-04-26T07:03:04.649Z,2.47
2023-04-26T07:05:32.605Z,2.53
2023-04-26T07:08:00.366Z,2.33
2023-04-26T07:10:29.711Z,2.33
2023-04-26T07:12:57.722Z,2.00
2023-04-26T07:15:25.649Z,2.83
2023-04-26T07:17:53.495Z,2.83
2023-04-26T07:20:23.574Z,2.90
2023-04-26T07:22:51.732Z,2.27
2023-04-26T07:25:19.591Z,3.20
2023-04-26T07:27:51.593Z,2.37
2023-04-26T07:30:19.318Z,2.57
2023-04-26T07:32:47.175Z,3.53
2023-04-26T07:35:16.333Z,2.77
2023-04-26T07:37:45.031Z,2.90
2023-04-26T07:40:13.997Z,2.60
2023-04-26T07:42:41.827Z,2.30
2023-04-26T07:45:12.445Z,3.03
2023-04-26T07:47:40.197Z,2.60
2023-04-26T07:50:09.556Z,2.60
2023-04-26T07:52:37.291Z,2.50
2023-04-26T07:55:05.482Z,2.77
2023-04-26T07:57:33.242Z,2.60
2023-04-26T08:00:01.694Z,2.10
2023-04-26T08:02:43.596Z,2.20
2023-04-26T08:05:12.322Z,2.37
2023-04-26T08:07:40.362Z,2.47
2023-04-26T08:10:09.047Z,2.27
2023-04-26T08:12:38.182Z,2.77
2023-04-26T08:15:07.399Z,2.50
2023-04-26T08:17:36.876Z,2.47
2023-04-26T08:20:06.490Z,2.47
2023-04-26T08:22:34.228Z,2.60
2023-04-26T08:25:02.083Z,2.40
2023-04-26T08:27:29.926Z,2.27
2023-04-26T08:29:57.785Z,2.83
2023-04-26T08:32:25.841Z,2.33
2023-04-26T08:34:55.367Z,2.10
2023-04-26T08:37:23.635Z,2.40
2023-04-26T08:39:51.609Z,2.17
2023-04-26T08:42:19.361Z,2.27
2023-04-26T08:44:47.250Z,2.20
2023-04-26T08:47:18.196Z,2.27
2023-04-26T08:49:47.758Z,2.10
2023-04-26T08:52:22.735Z,2.37
2023-04-26T08:54:54.955Z,2.33
2023-04-26T08:57:23.599Z,1.90
2023-04-26T08:59:52.744Z,2.30
2023-04-26T09:02:22.337Z,2.00
2023-04-26T09:04:51.327Z,1.40
2023-04-26T09:07:23.354Z,1.63
2023-04-26T09:09:52.104Z,1.37
2023-04-26T09:12:21.614Z,1.30
2023-04-26T09:14:49.524Z,1.20
2023-04-26T09:17:27.744Z,1.13
2023-04-26T09:19:55.906Z,1.83
2023-04-26T09:22:33.639Z,1.60
2023-04-26T09:25:03.828Z,1.43
2023-04-26T09:27:36.356Z,1.40
2023-04-26T09:30:10.494Z,1.53
2023-04-26T09:32:47.871Z,1.50
2023-04-26T09:35:28.860Z,1.57
2023-04-26T09:38:04.725Z,2.03
2023-04-26T09:40:38.313Z,1.43
2023-04-26T09:43:08.226Z,1.80
2023-04-26T09:45:45.901Z,1.60
2023-04-26T09:48:16.610Z,1.67
2023-04-26T09:50:46.660Z,1.50
2023-04-26T09:53:34.347Z,2.30
2023-04-26T09:56:10.013Z,1.70
2023-04-26T09:58:38.718Z,1.60
2023-04-26T10:01:08.802Z,1.63
2023-04-26T10:03:37.748Z,1.80
2023-04-26T10:06:06.621Z,1.70
2023-04-26T10:08:36.545Z,2.17
2023-04-26T10:11:07.422Z,1.80
2023-04-26T10:13:36.669Z,1.90
2023-04-26T10:16:05.114Z,2.00
2023-04-26T10:18:33.664Z,1.50
2023-04-26T10:21:06.611Z,2.23
2023-04-26T10:23:36.245Z,1.77
2023-04-26T10:26:04.133Z,2.00
2023-04-26T10:29:05.295Z,1.43
2023-04-26T10:32:06.644Z,2.10
2023-04-26T10:34:36.462Z,1.87
2023-04-26T10:37:14.782Z,1.83
2023-04-26T10:39:45.047Z,1.97
2023-04-26T10:42:24.018Z,1.47
2023-04-26T10:44:52.896Z,1.50
2023-04-26T10:47:38.883Z,1.17
2023-04-26T10:50:09.248Z,1.27
2023-04-26T10:52:57.997Z,1.53
2023-04-26T10:55:39.816Z,1.73
2023-04-26T10:58:28.644Z,1.50
2023-04-26T11:01:17.765Z,1.60
2023-04-26T11:04:06.719Z,1.50
2023-04-26T11:06:49.498Z,2.50
2023-04-26T11:09:37.552Z,1.90
2023-04-26T11:12:08.223Z,1.60
2023-04-26T11:14:35.958Z,1.43
2023-04-26T11:17:08.665Z,1.60
2023-04-26T11:19:36.890Z,1.53
2023-04-26T11:22:07.682Z,1.77
2023-04-26T11:24:36.916Z,1.70
2023-04-26T11:27:11.608Z,1.60
2023-04-26T11:29:40.641Z,1.47
2023-04-26T11:32:10.879Z,1.50
2023-04-26T11:34:40.606Z,2.00
2023-04-26T11:37:09.004Z,1.70
2023-04-26T11:39:38.215Z,1.90
2023-04-26T11:42:07.124Z,2.10
2023-04-26T11:44:37.325Z,2.13
2023-04-26T11:47:06.510Z,1.87
2023-04-26T11:49:36.621Z,1.53
2023-04-26T11:52:05.246Z,1.57
2023-04-26T11:54:34.699Z,2.13
2023-04-26T11:57:16.731Z,1.63
2023-04-26T11:59:46.853Z,1.83
2023-04-26T12:02:14.834Z,1.60
2023-04-26T12:04:44.331Z,1.90
2023-04-26T12:07:12.299Z,1.97
2023-04-26T12:09:42.601Z,2.00
2023-04-26T12:12:12.174Z,2.30
2023-04-26T12:14:42.377Z,1.63
2023-04-26T12:17:11.543Z,1.63
2023-04-26T12:19:41.690Z,2.13
2023-04-26T12:22:10.145Z,1.83
2023-04-26T12:24:38.149Z,1.60
2023-04-26T12:27:07.620Z,1.47
2023-04-26T12:29:36.399Z,1.60
2023-04-26T12:32:04.755Z,1.90
2023-04-26T12:34:36.780Z,1.70
2023-04-26T12:37:05.375Z,1.63
2023-04-26T12:39:33.184Z,2.27
2023-04-26T12:42:01.712Z,2.23
2023-04-26T12:44:29.656Z,1.70
2023-04-26T12:46:57.452Z,1.80
2023-04-26T12:49:25.292Z,1.63
2023-04-26T12:51:54.582Z,2.03
2023-04-26T12:54:22.286Z,1.50
2023-04-26T12:56:50.202Z,1.73
2023-04-26T12:59:18.086Z,1.57
2023-04-26T13:01:45.835Z,1.90
2023-04-26T13:04:13.786Z,1.70
2023-04-26T13:06:41.837Z,2.33
2023-04-26T13:09:13.178Z,1.93
2023-04-26T13:11:41.224Z,2.27
2023-04-26T13:14:09.149Z,1.90
2023-04-26T13:16:39.702Z,1.90
2023-04-26T13:19:07.700Z,2.03
2023-04-26T13:21:35.562Z,1.97
2023-04-26T13:24:03.360Z,2.10
2023-04-26T13:26:32.482Z,1.70
2023-04-26T13:29:00.371Z,2.47
2023-04-26T13:31:28.443Z,2.10
2023-04-26T13:33:56.363Z,1.80
2023-04-26T13:36:24.429Z,2.20
2023-04-26T13:38:52.617Z,2.20
2023-04-26T13:41:20.517Z,2.10
2023-04-26T13:43:50.145Z,1.97
2023-04-26T13:46:17.895Z,2.00
2023-04-26T13:48:46.688Z,1.73
2023-04-26T13:51:15.364Z,1.97
2023-04-26T13:53:43.146Z,2.10
2023-04-26T13:56:11.227Z,1.80
2023-04-26T13:58:39.123Z,1.77
2023-04-26T14:01:08.330Z,1.93
2023-04-26T14:03:36.759Z,1.80
2023-04-26T14:06:05.757Z,1.80
2023-04-26T14:08:33.593Z,2.03
2023-04-26T14:11:01.678Z,1.93
2023-04-26T14:13:29.525Z,2.33
2023-04-26T14:15:57.602Z,2.17
2023-04-26T14:18:26.863Z,3.47
2023-04-26T14:20:54.654Z,3.73
2023-04-26T14:23:22.567Z,2.43
2023-04-26T14:25:52.743Z,2.40
2023-04-26T14:28:20.827Z,2.37
2023-04-26T14:30:48.630Z,2.60
2023-04-26T14:33:16.728Z,2.37
2023-04-26T14:35:46.284Z,2.80
2023-04-26T14:38:14.324Z,2.43
2023-04-26T14:40:42.268Z,2.63
2023-04-26T14:43:10.124Z,2.27
2023-04-26T14:48:12.684Z,2.30
2023-04-26T14:50:40.614Z,2.63
2023-04-26T14:53:10.370Z,2.13
2023-04-26T14:55:39.273Z,2.40
2023-04-26T14:58:07.049Z,2.40
2023-04-26T15:00:34.774Z,2.30
2023-04-26T15:03:02.771Z,2.37
2023-04-26T15:05:30.821Z,2.60
2023-04-26T15:07:58.548Z,2.07
2023-04-26T15:10:28.004Z,2.13
2023-04-26T15:12:56.398Z,2.67
2023-04-26T15:15:24.217Z,2.10
2023-04-26T15:17:52.755Z,2.60
2023-04-26T15:20:20.908Z,2.43
2023-04-26T15:22:48.924Z,1.73
2023-04-26T15:25:16.644Z,2.40
2023-04-26T15:27:47.078Z,3.03
2023-04-26T15:30:15.092Z,2.10
2023-04-26T15:32:43.127Z,3.03
2023-04-26T15:35:13.698Z,2.10
2023-04-26T15:37:41.492Z,2.80
2023-04-26T15:40:10.672Z,2.40
2023-04-26T15:42:39.014Z,2.60
2023-04-26T15:45:09.533Z,2.50
2023-04-26T15:47:37.983Z,2.40
2023-04-26T15:50:07.779Z,3.57
2023-04-26T15:52:38.610Z,1.93
2023-04-26T15:55:08.648Z,2.50
2023-04-26T15:57:36.842Z,2.83
2023-04-26T16:00:06.035Z,2.67
2023-04-26T16:02:35.301Z,2.33
2023-04-26T16:05:04.278Z,2.80
2023-04-26T16:07:32.598Z,2.87
2023-04-26T16:10:00.684Z,2.63
2023-04-26T16:12:28.543Z,2.63
2023-04-26T16:14:56.334Z,3.03
2023-04-26T16:17:24.665Z,2.10
2023-04-26T16:19:53.707Z,2.50
2023-04-26T16:22:21.564Z,2.57
2023-04-26T16:24:49.303Z,2.57
2023-04-26T16:27:17.093Z,2.90
2023-04-26T16:29:45.687Z,2.73
2023-04-26T16:32:13.364Z,2.67
2023-04-26T16:34:41.133Z,2.50
2023-04-26T16:37:10.215Z,2.57
2023-04-26T16:39:38.488Z,2.70
2023-04-26T16:42:06.440Z,2.70
2023-04-26T16:44:34.276Z,2.30
2023-04-26T16:47:02.228Z,2.50
2023-04-26T16:49:30.041Z,2.40
2023-04-26T16:51:58.920Z,2.67
2023-04-26T16:54:28.531Z,2.73
2023-04-26T16:56:56.243Z,2.57
2023-04-26T16:59:23.952Z,2.70
2023-04-26T17:01:52.136Z,2.90
2023-04-26T17:04:20.104Z,2.97
2023-04-26T17:06:47.997Z,2.47
2023-04-26T17:09:15.911Z,2.60
2023-04-26T17:11:45.050Z,2.40
2023-04-26T17:14:12.874Z,2.90
2023-04-26T17:16:40.699Z,2.60
2023-04-26T17:19:08.478Z,2.23
2023-04-26T17:21:36.681Z,2.60
2023-04-26T17:24:05.587Z,2.77
2023-04-26T17:26:33.314Z,2.60
2023-04-26T17:29:02.581Z,2.93
2023-04-26T17:31:30.460Z,2.70
2023-04-26T17:33:58.188Z,2.70
2023-04-26T17:36:26.688Z,3.40
2023-04-26T17:38:54.685Z,3.33
2023-04-26T17:41:23.739Z,3.00
2023-04-26T17:43:51.790Z,2.80
2023-04-26T17:46:20.945Z,2.60
2023-04-26T17:48:48.810Z,2.77
2023-04-26T17:51:16.577Z,3.80
2023-04-26T17:53:44.284Z,3.23
2023-04-26T17:56:12.221Z,3.27
2023-04-26T17:58:40.179Z,3.67
2023-04-26T18:01:08.065Z,3.03
2023-04-26T18:03:37.329Z,3.30
2023-04-26T18:06:05.737Z,3.00
2023-04-26T18:08:33.536Z,3.27
2023-04-26T18:11:01.199Z,3.47
2023-04-26T18:13:29.105Z,2.63
2023-04-26T18:15:57.172Z,3.40
2023-04-26T18:18:27.795Z,3.20
2023-04-26T18:20:57.269Z,3.23
2023-04-26T18:23:25.282Z,3.73
2023-04-26T18:25:56.201Z,3.33
2023-04-26T18:28:23.877Z,3.90
2023-04-26T18:30:56.837Z,3.33
2023-04-26T18:33:25.701Z,2.90
2023-04-26T18:35:53.682Z,2.63
2023-04-26T18:38:23.134Z,2.60
2023-04-26T18:40:51.412Z,2.47
2023-04-26T18:43:19.907Z,3.20
2023-04-26T18:45:48.058Z,1.90
2023-04-26T18:48:15.824Z,2.20
2023-04-26T18:50:51.152Z,2.07
2023-04-26T18:53:19.385Z,2.03
2023-04-26T18:55:49.234Z,1.90
2023-04-26T18:58:16.985Z,1.87
2023-04-26T19:00:44.723Z,1.80
2023-04-26T19:03:12.851Z,1.57
2023-04-26T19:05:42.509Z,1.43
2023-04-26T19:08:10.542Z,1.40
2023-04-26T19:10:38.398Z,1.80
2023-04-26T19:13:07.701Z,1.53
2023-04-26T19:15:36.376Z,1.87
2023-04-26T19:18:04.223Z,1.70
2023-04-26T19:20:32.736Z,2.40
2023-04-26T19:23:00.461Z,2.10
2023-04-26T19:25:30.336Z,2.10
2023-04-26T19:27:58.238Z,2.23
2023-04-26T19:30:27.447Z,2.10
2023-04-26T19:32:55.512Z,1.87
2023-04-26T19:35:23.263Z,2.00
2023-04-26T19:37:51.159Z,1.50
2023-04-26T19:40:18.967Z,1.83
2023-04-26T19:42:46.773Z,1.83
2023-04-26T19:45:14.698Z,1.80
2023-04-26T19:47:44.076Z,1.73
2023-04-26T19:50:12.790Z,1.97
2023-04-26T19:52:40.621Z,1.90
2023-04-26T19:55:10.401Z,1.80
2023-04-26T19:57:38.607Z,2.20
2023-04-26T20:00:10.269Z,1.83
2023-04-26T20:02:38.312Z,1.90
2023-04-26T20:05:09.290Z,1.90
2023-04-26T20:07:37.155Z,1.83
2023-04-26T20:10:05.349Z,2.00
2023-04-26T20:12:34.456Z,1.60
2023-04-26T20:15:02.490Z,1.90
2023-04-26T20:17:30.347Z,2.37
2023-04-26T20:19:58.179Z,1.90
2023-04-26T20:22:27.685Z,2.40
2023-04-26T20:24:55.386Z,1.70
2023-04-26T20:27:23.152Z,1.80
2023-04-26T20:29:50.998Z,2.10
2023-04-26T20:32:19.384Z,1.40
2023-04-26T20:34:47.595Z,1.83
2023-04-26T20:37:15.495Z,2.37
2023-04-26T20:39:44.812Z,1.83
2023-04-26T20:42:12.763Z,1.80
2023-04-26T20:44:40.545Z,2.03
2023-04-26T20:47:09.034Z,1.80
2023-04-26T20:49:36.889Z,1.90
2023-04-26T20:52:05.163Z,2.10
2023-04-26T20:54:33.362Z,2.10
2023-04-26T20:57:04.026Z,2.60
2023-04-26T20:59:33.950Z,2.37
2023-04-26T21:02:02.928Z,2.33
2023-04-26T21:04:30.948Z,2.33
2023-04-26T21:06:58.853Z,2.53
2023-04-26T21:09:26.677Z,2.27
2023-04-26T21:11:54.477Z,2.17
2023-04-26T21:14:23.578Z,2.03
2023-04-26T21:16:51.270Z,2.33
2023-04-26T21:19:19.023Z,2.50
2023-04-26T21:21:46.908Z,2.53
2023-04-26T21:24:14.736Z,2.07
2023-04-26T21:26:42.540Z,2.53
2023-04-26T21:29:10.448Z,2.57
2023-04-26T21:31:39.686Z,2.70
2023-04-26T21:34:07.461Z,2.70
2023-04-26T21:36:35.134Z,2.60
2023-04-26T21:39:03.510Z,2.40
2023-04-26T21:41:31.358Z,2.80
2023-04-26T21:43:59.073Z,2.93
2023-04-26T21:46:27.761Z,3.13
2023-04-26T21:48:56.872Z,2.87
2023-04-26T21:51:24.686Z,3.47
2023-04-26T21:53:52.419Z,3.53
2023-04-26T21:56:20.181Z,3.53
2023-04-26T21:58:47.890Z,3.80
2023-04-26T22:01:16.633Z,3.77
2023-04-26T22:03:44.598Z,3.90
2023-04-26T22:06:13.855Z,3.90
2023-04-26T22:08:41.891Z,3.73
2023-04-26T22:11:09.647Z,3.97
2023-04-26T22:13:37.394Z,4.50
2023-04-26T22:16:06.101Z,4.13
2023-04-26T22:18:35.047Z,4.53
2023-04-26T22:21:02.705Z,3.83
2023-04-26T22:23:32.022Z,3.97
2023-04-26T22:26:00.642Z,4.33
2023-04-26T22:28:28.471Z,4.33
2023-04-26T22:30:56.226Z,3.70
2023-04-26T22:33:23.925Z,4.03
2023-04-26T22:35:51.809Z,3.67
2023-04-26T22:38:19.520Z,3.40
2023-04-26T22:40:48.552Z,3.63
2023-04-26T22:43:16.883Z,4.00
2023-04-26T22:45:44.804Z,3.53
2023-04-26T22:48:12.754Z,3.90
2023-04-26T22:50:40.595Z,4.10
2023-04-26T22:53:09.144Z,3.43
2023-04-26T22:55:36.904Z,3.57
2023-04-26T22:58:06.039Z,3.20
2023-04-26T23:00:33.708Z,3.67
2023-04-26T23:03:01.493Z,3.47
2023-04-26T23:05:29.346Z,3.93
2023-04-26T23:07:57.104Z,3.43
2023-04-26T23:10:25.057Z,3.53
2023-04-26T23:12:52.963Z,3.53
2023-04-26T23:15:22.495Z,3.77
2023-04-26T23:17:50.468Z,3.37
2023-04-26T23:20:18.465Z,3.90
2023-04-26T23:22:46.256Z,3.20
2023-04-26T23:25:14.074Z,3.20
2023-04-26T23:27:42.010Z,3.40
2023-04-26T23:30:10.768Z,4.03
2023-04-26T23:32:39.976Z,3.33
2023-04-26T23:35:08.735Z,3.63
2023-04-26T23:37:36.477Z,3.73
2023-04-26T23:40:06.035Z,3.40
2023-04-26T23:42:33.775Z,4.00
2023-04-26T23:45:01.768Z,3.77
2023-04-26T23:47:30.081Z,3.63
2023-04-26T23:49:59.446Z,3.30
2023-04-26T23:52:27.576Z,3.70
2023-04-26T23:54:55.271Z,3.70
2023-04-26T23:57:23.031Z,4.37
2023-04-26T23:59:52.577Z,3.63
